»·PEaware :: N732SG KSBD-KSEE

N732SG :: KSBD-KSEE

FLIGHT INFORMATION

Flight Status: Arrived
Operator: Privately registered:
United States
More flights under this callsign
Pilot: Scott Gabriel (88)
Aircraft: CESSNA 172 SKYHAWK
(C172)
More flights by this aircraft type
Origin: KSBD San Bernardino Intl
United States
Destination: KSEE Gillespie
United States
More flights between these airports :: More routes between these airports
Route: JLI
File this flight plan on PilotEdge
Remarks: X-Plane 11 crashing often, FYI.
Altitude:
(Current/Filed)
7,500ft
Speed:
(Current/Filed)
115kts
Departed: 19-Jun-17 10:03 AM
Arrived: 19-Jun-17 10:58 AM
Distance/Time
Traveled:
77nm/0:55
Distance/Time
To Go:
Arrived

Flight Plot

Page will automatically refresh every two minutes.

Flight plan parsing failed; only flown route is shown


Map Options




Map Legend


Flown Route
Filed Route
Departure Airport
Arrival Airport
Navaid (VOR, NDB)
Fix

Horizontal Profiles

Position Reports

Time Latitude Longitude Heading Altitude Ground
Speed
19-Jun-17 09:51 34.104461 -117.245812 286 1161ft 0kts
19-Jun-17 09:52 34.104461 -117.245812 286 1161ft 0kts
19-Jun-17 09:53 34.104461 -117.245812 286 1161ft 0kts
19-Jun-17 09:54 34.104461 -117.245812 286 1161ft 0kts
19-Jun-17 09:55 34.104461 -117.245812 286 1161ft 0kts
19-Jun-17 09:56 34.104461 -117.245812 286 1161ft 0kts
19-Jun-17 09:57 34.104354 -117.245798 116 1161ft 0kts
19-Jun-17 09:58 34.104354 -117.245798 116 1161ft 0kts
19-Jun-17 09:59 34.103594 -117.243670 110 1161ft 24kts
19-Jun-17 10:00 34.097400 -117.237150 150 1161ft 30kts
19-Jun-17 10:01 34.095250 -117.241242 250 1161ft 22kts
19-Jun-17 10:02 34.092903 -117.249218 250 1161ft 24kts
19-Jun-17 10:03 34.091582 -117.251423 97 1161ft 0kts
19-Jun-17 10:04 34.091580 -117.251404 96 1161ft 1kts
19-Jun-17 10:05 34.091465 -117.250725 138 1161ft 4kts
19-Jun-17 10:06 34.092663 -117.243626 70 1236ft 71kts
19-Jun-17 10:07 34.093606 -117.217021 140 1933ft 85kts
19-Jun-17 10:08 34.072819 -117.202997 152 2666ft 88kts
19-Jun-17 10:09 34.051299 -117.190163 152 3349ft 89kts
19-Jun-17 10:10 34.028954 -117.177355 152 4027ft 90kts
19-Jun-17 10:11 34.008715 -117.166165 152 4564ft 93kts
19-Jun-17 10:12 33.989527 -117.155903 152 5054ft 93kts
19-Jun-17 10:13 33.966981 -117.144329 152 5627ft 91kts
19-Jun-17 10:14 33.943634 -117.132904 152 6231ft 91kts
19-Jun-17 10:15 33.920268 -117.121977 152 6832ft 89kts
19-Jun-17 10:16 33.900344 -117.106510 134 7396ft 86kts
19-Jun-17 10:17 33.879407 -117.088342 141 7604ft 108kts
19-Jun-17 10:18 33.852855 -117.068698 144 7586ft 113kts
19-Jun-17 10:19 33.828600 -117.051723 145 7577ft 113kts
19-Jun-17 10:20 33.801344 -117.032963 145 7566ft 113kts
19-Jun-17 10:21 33.773811 -117.014130 146 7550ft 114kts
19-Jun-17 10:22 33.748670 -116.996969 146 7536ft 114kts
19-Jun-17 10:23 33.720974 -116.978084 146 7526ft 115kts
19-Jun-17 10:24 33.694723 -116.960199 146 7518ft 115kts
19-Jun-17 10:25 33.667185 -116.941452 147 7508ft 115kts
19-Jun-17 10:26 33.639234 -116.922422 147 7499ft 115kts
19-Jun-17 10:27 33.611278 -116.903384 147 7489ft 116kts
19-Jun-17 10:28 33.583266 -116.884353 147 7489ft 115kts
19-Jun-17 10:29 33.555493 -116.865522 147 7505ft 115kts
19-Jun-17 10:30 33.538086 -116.853736 147 7551ft 113kts
19-Jun-17 10:31 33.510445 -116.834994 147 7549ft 115kts
19-Jun-17 10:32 33.482587 -116.816132 147 7558ft 115kts
19-Jun-17 10:33 33.454864 -116.797368 147 7565ft 115kts
19-Jun-17 10:34 33.428505 -116.779544 147 7568ft 115kts
19-Jun-17 10:35 33.400611 -116.760703 147 7569ft 115kts
19-Jun-17 10:36 33.372718 -116.741867 147 7573ft 115kts
19-Jun-17 10:37 33.344884 -116.723084 147 7581ft 115kts
19-Jun-17 10:38 33.317088 -116.704339 147 7592ft 114kts
19-Jun-17 10:39 33.289316 -116.685620 147 7606ft 114kts
19-Jun-17 10:40 33.261588 -116.666941 147 7614ft 115kts
19-Jun-17 10:41 33.233747 -116.648240 147 7614ft 115kts
19-Jun-17 10:42 33.209838 -116.632247 147 7612ft 115kts
19-Jun-17 10:43 33.181696 -116.613401 147 7581ft 116kts
19-Jun-17 10:44 33.153604 -116.594558 147 7579ft 115kts
19-Jun-17 10:45 33.125897 -116.604787 222 7586ft 119kts
19-Jun-17 10:46 33.101299 -116.634315 226 7296ft 129kts
19-Jun-17 10:47 33.072252 -116.658427 209 6907ft 128kts
19-Jun-17 10:48 33.041494 -116.680112 209 6486ft 130kts
19-Jun-17 10:49 33.010124 -116.702096 209 5927ft 133kts
19-Jun-17 10:50 32.978089 -116.724347 209 5236ft 133kts
19-Jun-17 10:51 32.949642 -116.743940 209 4617ft 132kts
19-Jun-17 10:52 32.920783 -116.769736 226 3912ft 128kts
19-Jun-17 10:53 32.896265 -116.800599 226 3220ft 130kts
19-Jun-17 10:54 32.871513 -116.831891 226 2537ft 128kts
19-Jun-17 10:55 32.849844 -116.859332 226 2521ft 106kts
19-Jun-17 10:56 32.829925 -116.884536 226 2499ft 102kts
19-Jun-17 10:57 32.809882 -116.905178 178 2435ft 93kts
19-Jun-17 10:58 32.807094 -116.899669 299 2286ft 109kts
19-Jun-17 10:59 32.819665 -116.928234 287 1484ft 85kts
19-Jun-17 11:00 32.823929 -116.952710 288 765ft 69kts
19-Jun-17 11:01 32.827516 -116.970464 281 392ft 36kts
19-Jun-17 11:02 32.824945 -116.971807 181 392ft 15kts
19-Jun-17 11:03 32.824676 -116.970398 355 392ft 0kts

Navigation Log

Ident Type
Flight plan parsing failed, navigation log unavailable